createdAt,value
2023-01-30T00:00:00.850Z,101443.81
2023-01-30T00:00:23.498Z,101442.91
2023-01-30T00:00:45.156Z,101442.00
2023-01-30T00:01:12.889Z,101452.56
2023-01-30T00:01:34.988Z,101449.03
2023-01-30T00:01:58.120Z,101447.25
2023-01-30T00:02:19.801Z,101445.47
2023-01-30T00:02:41.411Z,101439.31
2023-01-30T00:03:03.178Z,101433.16
2023-01-30T00:03:25.415Z,101440.19
2023-01-30T00:03:49.867Z,101435.75
2023-01-30T00:04:12.553Z,101436.66
2023-01-30T00:04:34.525Z,101440.13
2023-01-30T00:04:56.187Z,101446.28
2023-01-30T00:05:17.989Z,101438.38
2023-01-30T00:05:40.970Z,101439.25
2023-01-30T00:06:02.686Z,101435.75
2023-01-30T00:06:25.184Z,101424.34
2023-01-30T00:06:46.827Z,101415.56
2023-01-30T00:07:08.599Z,101427.03
2023-01-30T00:07:31.249Z,101426.16
2023-01-30T00:07:52.853Z,101427.88
2023-01-30T00:08:14.644Z,101427.91
2023-01-30T00:08:36.544Z,101426.97
2023-01-30T00:08:59.628Z,101434.00
2023-01-30T00:09:21.609Z,101433.97
2023-01-30T00:09:43.317Z,101419.03
2023-01-30T00:10:05.871Z,101426.03
2023-01-30T00:10:28.784Z,101427.81
2023-01-30T00:10:50.665Z,101411.97
2023-01-30T00:11:14.874Z,101420.75
2023-01-30T00:11:37.814Z,101415.47
2023-01-30T00:11:59.506Z,101413.72
2023-01-30T00:12:21.354Z,101409.31
2023-01-30T00:12:43.171Z,101410.22
2023-01-30T00:13:05.050Z,101412.84
2023-01-30T00:13:29.849Z,101406.72
2023-01-30T00:13:51.766Z,101405.84
2023-01-30T00:14:13.676Z,101404.94
2023-01-30T00:14:36.551Z,101398.78
2023-01-30T00:14:58.437Z,101397.03
2023-01-30T00:15:20.286Z,101394.41
2023-01-30T00:15:42.538Z,101388.25
2023-01-30T00:16:05.190Z,101389.09
2023-01-30T00:16:28.341Z,101386.47
2023-01-30T00:16:50.011Z,101383.03
2023-01-30T00:17:11.648Z,101377.78
2023-01-30T00:17:33.415Z,101386.56
2023-01-30T00:17:56.307Z,101383.03
2023-01-30T00:18:18.224Z,101382.16
2023-01-30T00:18:41.658Z,101387.38
2023-01-30T00:19:05.918Z,101378.56
2023-01-30T00:19:27.666Z,101373.25
2023-01-30T00:19:49.574Z,101389.09
2023-01-30T00:20:14.792Z,101385.59
2023-01-30T00:20:38.842Z,101383.00
2023-01-30T00:21:03.237Z,101397.09
2023-01-30T00:21:24.876Z,101385.72
2023-01-30T00:21:46.505Z,101396.28
2023-01-30T00:22:09.380Z,101400.66
2023-01-30T00:22:31.197Z,101396.25
2023-01-30T00:23:00.804Z,101394.50
2023-01-30T00:23:23.251Z,101391.81
2023-01-30T00:23:46.405Z,101395.38
2023-01-30T00:24:08.447Z,101396.25
2023-01-30T00:24:30.319Z,101395.31
2023-01-30T00:24:52.403Z,101391.88
2023-01-30T00:25:14.429Z,101388.34
2023-01-30T00:25:37.198Z,101378.69
2023-01-30T00:25:59.516Z,101381.28
2023-01-30T00:26:21.402Z,101381.22
2023-01-30T00:26:43.148Z,101375.91
2023-01-30T00:27:06.195Z,101383.88
2023-01-30T00:27:28.006Z,101385.66
2023-01-30T00:27:51.125Z,101385.66
2023-01-30T00:28:12.755Z,101383.03
2023-01-30T00:28:34.714Z,101388.38
2023-01-30T00:28:57.977Z,101391.91
2023-01-30T00:29:20.034Z,101384.84
2023-01-30T00:29:42.336Z,101385.66
2023-01-30T00:30:07.248Z,101393.56
2023-01-30T00:30:30.056Z,101390.00
2023-01-30T00:30:55.519Z,101390.91
2023-01-30T00:31:18.542Z,101380.31
2023-01-30T00:31:40.482Z,101382.88
2023-01-30T00:32:02.338Z,101389.94
2023-01-30T00:32:26.467Z,101391.63
2023-01-30T00:32:48.243Z,101387.19
2023-01-30T00:33:10.797Z,101384.53
2023-01-30T00:33:32.463Z,101387.19
2023-01-30T00:33:55.291Z,101386.31
2023-01-30T00:34:20.309Z,101388.06
2023-01-30T00:34:41.871Z,101374.00
2023-01-30T00:35:04.179Z,101381.00
2023-01-30T00:35:28.627Z,101382.75
2023-01-30T00:35:52.516Z,101386.25
2023-01-30T00:36:14.440Z,101382.72
2023-01-30T00:36:36.192Z,101382.69
2023-01-30T00:37:08.203Z,101375.66
2023-01-30T00:37:30.348Z,101385.28
2023-01-30T00:37:52.538Z,101371.22
2023-01-30T00:38:15.185Z,101374.72
2023-01-30T00:38:38.343Z,101372.03
2023-01-30T00:39:02.280Z,101381.72
2023-01-30T00:39:24.003Z,101383.47
2023-01-30T00:39:45.888Z,101383.44
2023-01-30T00:40:10.531Z,101381.69
2023-01-30T00:40:33.004Z,101381.69
2023-01-30T00:40:54.848Z,101378.13
2023-01-30T00:41:19.017Z,101373.72
2023-01-30T00:41:59.346Z,101365.00
2023-01-30T00:42:39.901Z,101369.44
2023-01-30T00:43:20.222Z,101365.03
2023-01-30T00:44:00.338Z,101367.69
2023-01-30T00:44:40.636Z,101367.72
2023-01-30T00:45:22.208Z,101366.00
2023-01-30T00:46:02.480Z,101374.91
2023-01-30T00:46:48.090Z,101372.31
2023-01-30T00:47:11.380Z,101367.94
2023-01-30T00:47:33.253Z,101365.25
2023-01-30T00:47:55.201Z,101368.78
2023-01-30T00:48:16.980Z,101368.84
2023-01-30T00:48:38.668Z,101366.25
2023-01-30T00:49:01.524Z,101359.34
2023-01-30T00:49:24.586Z,101361.13
2023-01-30T00:49:46.392Z,101369.03
2023-01-30T00:50:10.619Z,101358.41
2023-01-30T00:50:42.516Z,101356.66
2023-01-30T00:51:06.957Z,101364.50
2023-01-30T00:51:28.684Z,101357.44
2023-01-30T00:51:51.817Z,101365.28
2023-01-30T00:52:13.496Z,101355.56
2023-01-30T00:52:35.227Z,101357.34
2023-01-30T00:52:56.902Z,101359.03
2023-01-30T00:53:19.073Z,101355.50
2023-01-30T00:53:42.256Z,101350.25
2023-01-30T00:54:04.458Z,101353.75
2023-01-30T00:54:26.609Z,101359.03
2023-01-30T00:54:48.275Z,101352.88
2023-01-30T00:55:11.168Z,101357.25
2023-01-30T00:55:33.032Z,101359.06
2023-01-30T00:55:55.473Z,101348.63
2023-01-30T00:56:17.189Z,101351.28
2023-01-30T00:56:40.166Z,101353.91
2023-01-30T00:57:02.028Z,101352.13
2023-01-30T00:57:23.701Z,101361.78
2023-01-30T00:57:45.625Z,101355.63
2023-01-30T00:58:09.184Z,101362.63
2023-01-30T00:58:30.827Z,101367.84
2023-01-30T00:58:52.479Z,101358.16
2023-01-30T00:59:14.125Z,101359.00
2023-01-30T00:59:36.690Z,101362.50
2023-01-30T00:59:58.874Z,101359.00
2023-01-30T01:00:20.933Z,101354.56
2023-01-30T01:00:42.673Z,101353.66
2023-01-30T01:01:04.804Z,101347.50
2023-01-30T01:01:27.658Z,101358.09
2023-01-30T01:01:49.695Z,101353.75
2023-01-30T01:02:11.652Z,101350.25
2023-01-30T01:02:34.613Z,101349.34
2023-01-30T01:02:56.369Z,101346.69
2023-01-30T01:03:19.720Z,101345.78
2023-01-30T01:03:41.867Z,101352.78
2023-01-30T01:04:04.201Z,101342.19
2023-01-30T01:04:27.516Z,101343.06
2023-01-30T01:04:50.480Z,101343.94
2023-01-30T01:05:13.165Z,101336.88
2023-01-30T01:05:35.404Z,101335.09
2023-01-30T01:05:57.243Z,101335.09
2023-01-30T01:06:20.287Z,101327.13
2023-01-30T01:06:42.094Z,101329.78
2023-01-30T01:07:03.717Z,101325.38
2023-01-30T01:07:25.381Z,101326.44
2023-01-30T01:07:48.477Z,101325.72
2023-01-30T01:08:10.689Z,101334.47
2023-01-30T01:08:32.492Z,101321.28
2023-01-30T01:08:54.247Z,101326.56
2023-01-30T01:09:17.236Z,101335.38
2023-01-30T01:09:39.101Z,101329.28
2023-01-30T01:10:00.872Z,101336.34
2023-01-30T01:10:22.898Z,101334.63
2023-01-30T01:10:45.008Z,101336.38
2023-01-30T01:11:08.039Z,101330.19
2023-01-30T01:11:29.866Z,101329.31
2023-01-30T01:11:51.517Z,101331.00
2023-01-30T01:12:13.302Z,101333.59
2023-01-30T01:12:36.427Z,101328.31
2023-01-30T01:12:58.510Z,101328.31
2023-01-30T01:13:20.256Z,101325.69
2023-01-30T01:13:42.253Z,101330.06
2023-01-30T01:14:08.371Z,101337.94
2023-01-30T01:14:30.094Z,101340.56
2023-01-30T01:14:52.101Z,101334.41
2023-01-30T01:15:14.633Z,101335.25
2023-01-30T01:15:36.540Z,101343.19
2023-01-30T01:15:59.470Z,101336.06
2023-01-30T01:16:21.673Z,101334.31
2023-01-30T01:16:43.933Z,101345.72
2023-01-30T01:17:05.930Z,101336.03
2023-01-30T01:17:27.761Z,101340.50
2023-01-30T01:17:51.353Z,101334.31
2023-01-30T01:18:13.124Z,101334.34
2023-01-30T01:18:34.847Z,101348.34
2023-01-30T01:18:56.638Z,101343.03
2023-01-30T01:19:19.678Z,101346.53
2023-01-30T01:19:42.877Z,101344.75
2023-01-30T01:20:05.802Z,101345.75
2023-01-30T01:20:27.923Z,101345.84
2023-01-30T01:20:49.839Z,101337.97
2023-01-30T01:21:13.195Z,101338.06
2023-01-30T01:21:34.877Z,101346.84
2023-01-30T01:21:56.546Z,101346.81
2023-01-30T01:22:18.285Z,101335.38
2023-01-30T01:22:41.909Z,101333.59
2023-01-30T01:23:03.701Z,101332.69
2023-01-30T01:23:25.512Z,101335.28
2023-01-30T01:23:51.345Z,101329.97
2023-01-30T01:24:15.389Z,101329.06
2023-01-30T01:24:37.196Z,101328.09
2023-01-30T01:24:59.041Z,101335.22
2023-01-30T01:25:22.036Z,101324.81
2023-01-30T01:25:43.734Z,101330.91
2023-01-30T01:26:05.848Z,101325.56
2023-01-30T01:26:30.410Z,101322.84
2023-01-30T01:26:52.163Z,101326.38
2023-01-30T01:27:13.826Z,101325.50
2023-01-30T01:27:35.573Z,101322.00
2023-01-30T01:27:58.244Z,101317.66
2023-01-30T01:28:22.290Z,101322.88
2023-01-30T01:28:44.013Z,101316.66
2023-01-30T01:29:05.845Z,101320.19
2023-01-30T01:29:28.514Z,101313.09
2023-01-30T01:29:52.932Z,101318.28
2023-01-30T01:30:14.981Z,101317.41
2023-01-30T01:30:38.510Z,101316.53
2023-01-30T01:31:47.732Z,101319.06
2023-01-30T01:32:10.773Z,101319.97
2023-01-30T01:32:32.662Z,101318.19
2023-01-30T01:32:55.296Z,101318.19
2023-01-30T01:33:16.965Z,101318.25
2023-01-30T01:33:38.569Z,101320.88
2023-01-30T01:34:00.204Z,101333.22
2023-01-30T01:34:21.792Z,101333.16
2023-01-30T01:34:45.737Z,101326.97
2023-01-30T01:35:08.225Z,101329.63
2023-01-30T01:35:29.808Z,101326.94
2023-01-30T01:35:51.422Z,101318.19
2023-01-30T01:36:20.026Z,101318.97
2023-01-30T01:36:54.392Z,101319.06
2023-01-30T01:37:16.479Z,101313.72
2023-01-30T01:37:38.437Z,101320.78
2023-01-30T01:38:00.120Z,101316.41
2023-01-30T01:38:22.923Z,101316.38
2023-01-30T01:38:46.327Z,101311.19
2023-01-30T01:39:08.319Z,101310.41
2023-01-30T01:39:51.290Z,101307.84
2023-01-30T01:40:36.253Z,101310.53
2023-01-30T01:41:06.429Z,101311.53
2023-01-30T01:41:30.309Z,101309.66
2023-01-30T01:41:52.120Z,101306.97
2023-01-30T01:42:15.776Z,101315.81
2023-01-30T01:42:39.101Z,101309.63
2023-01-30T01:43:01.240Z,101310.44
2023-01-30T01:43:27.156Z,101310.41
2023-01-30T01:44:04.457Z,101307.81
2023-01-30T01:44:49.894Z,101300.72
2023-01-30T01:45:19.808Z,101299.94
2023-01-30T01:45:43.649Z,101294.66
2023-01-30T01:46:15.387Z,101300.00
2023-01-30T01:46:43.561Z,101294.69
2023-01-30T01:47:08.729Z,101311.50
2023-01-30T01:47:34.796Z,101300.13
2023-01-30T01:48:02.601Z,101296.66
2023-01-30T01:48:31.250Z,101308.88
2023-01-30T01:48:59.416Z,101298.34
2023-01-30T01:49:26.449Z,101302.69
2023-01-30T01:49:52.217Z,101294.88
2023-01-30T01:50:22.555Z,101308.00
2023-01-30T01:50:50.275Z,101300.94
2023-01-30T01:51:17.409Z,101294.69
2023-01-30T01:51:43.476Z,101285.03
2023-01-30T01:52:09.541Z,101292.94
2023-01-30T01:52:32.773Z,101298.16
2023-01-30T01:52:58.249Z,101291.13
2023-01-30T01:53:26.790Z,101285.88
2023-01-30T01:53:52.850Z,101290.25
2023-01-30T01:54:18.512Z,101293.75
2023-01-30T01:54:45.169Z,101301.66
2023-01-30T01:55:07.745Z,101286.66
2023-01-30T01:55:30.421Z,101298.06
2023-01-30T01:55:55.749Z,101297.09
2023-01-30T01:56:19.893Z,101300.56
2023-01-30T01:56:47.100Z,101296.13
2023-01-30T01:57:16.207Z,101299.59
2023-01-30T01:57:42.571Z,101289.91
2023-01-30T01:58:10.296Z,101297.00
2023-01-30T01:58:37.269Z,101278.44
2023-01-30T01:59:04.562Z,101286.31
2023-01-30T01:59:32.920Z,101280.38
2023-01-30T02:00:02.483Z,101284.03
2023-01-30T02:00:34.411Z,101273.50
2023-01-30T02:00:59.161Z,101287.56
2023-01-30T02:01:22.133Z,101278.00
2023-01-30T02:01:44.468Z,101288.44
2023-01-30T02:02:09.199Z,101277.91
2023-01-30T02:02:30.965Z,101287.66
2023-01-30T02:02:58.014Z,101286.69
2023-01-30T02:03:24.022Z,101284.97
2023-01-30T02:03:50.719Z,101287.59
2023-01-30T02:04:13.426Z,101284.03
2023-01-30T02:05:01.821Z,101278.72
2023-01-30T02:05:28.546Z,101274.44
2023-01-30T02:05:57.766Z,101271.78
2023-01-30T02:06:22.494Z,101273.50
2023-01-30T02:06:44.177Z,101272.63
2023-01-30T02:07:06.215Z,101268.19
2023-01-30T02:07:33.390Z,101276.16
2023-01-30T02:08:01.733Z,101264.66
2023-01-30T02:08:27.317Z,101267.41
2023-01-30T02:08:53.777Z,101273.50
2023-01-30T02:09:16.421Z,101273.47
2023-01-30T02:09:38.595Z,101266.44
2023-01-30T02:10:01.117Z,101274.31
2023-01-30T02:10:25.515Z,101277.88
2023-01-30T02:10:54.052Z,101269.03
2023-01-30T02:11:25.612Z,101269.13
2023-01-30T02:11:54.522Z,101268.34
2023-01-30T02:12:16.798Z,101272.84
2023-01-30T02:12:39.997Z,101273.66
2023-01-30T02:13:02.564Z,101267.53
2023-01-30T02:13:24.927Z,101269.25
2023-01-30T02:13:48.228Z,101263.09
2023-01-30T02:14:11.335Z,101264.88
2023-01-30T02:14:35.263Z,101270.13
2023-01-30T02:14:59.069Z,101258.63
2023-01-30T02:15:20.759Z,101263.09
2023-01-30T02:15:42.720Z,101257.84
2023-01-30T02:16:07.611Z,101256.91
2023-01-30T02:16:29.329Z,101260.47
2023-01-30T02:16:51.016Z,101259.59
2023-01-30T02:17:12.767Z,101246.31
2023-01-30T02:17:34.446Z,101245.59
2023-01-30T02:17:57.958Z,101242.91
2023-01-30T02:18:20.010Z,101243.66
2023-01-30T02:18:44.659Z,101237.56
2023-01-30T02:19:16.197Z,101248.94
2023-01-30T02:19:50.620Z,101235.78
2023-01-30T02:20:21.467Z,101243.72
2023-01-30T02:21:06.380Z,101231.25
2023-01-30T02:21:56.097Z,101230.50
2023-01-30T02:22:33.117Z,101240.94
2023-01-30T02:23:39.175Z,101236.81
2023-01-30T02:24:27.367Z,101229.72
2023-01-30T02:25:23.328Z,101228.75
2023-01-30T02:26:19.260Z,101238.38
2023-01-30T02:27:21.769Z,101242.16
2023-01-30T02:28:04.198Z,101237.84
2023-01-30T02:29:01.522Z,101238.84
2023-01-30T02:29:55.714Z,101241.44
2023-01-30T02:31:01.925Z,101233.38
2023-01-30T02:31:32.944Z,101245.59
2023-01-30T02:32:03.904Z,101242.91
2023-01-30T02:32:35.855Z,101233.38
2023-01-30T02:33:08.725Z,101235.09
2023-01-30T02:33:41.169Z,101235.88
2023-01-30T02:34:27.703Z,101225.38
2023-01-30T02:34:57.529Z,101233.19
2023-01-30T02:35:28.931Z,101230.47
2023-01-30T02:36:05.181Z,101220.75
2023-01-30T02:36:32.646Z,101231.22
2023-01-30T02:37:02.659Z,101217.06
2023-01-30T02:37:37.160Z,101232.91
2023-01-30T02:38:13.834Z,101212.75
2023-01-30T02:38:42.354Z,101225.41
2023-01-30T02:39:09.419Z,101228.00
2023-01-30T02:39:41.993Z,101222.72
2023-01-30T02:40:16.710Z,101208.72
2023-01-30T02:40:44.801Z,101213.00
2023-01-30T02:41:20.130Z,101212.06
2023-01-30T02:41:53.283Z,101212.88
2023-01-30T02:42:26.842Z,101207.63
2023-01-30T02:42:56.703Z,101199.75
2023-01-30T02:43:29.455Z,101195.31
2023-01-30T02:43:59.816Z,101203.22
2023-01-30T02:44:30.097Z,101205.81
2023-01-30T02:44:59.988Z,101210.19
2023-01-30T02:45:27.505Z,101200.44
2023-01-30T02:45:58.039Z,101199.44
2023-01-30T02:46:25.484Z,101203.88
2023-01-30T02:46:58.617Z,101210.84
2023-01-30T02:47:31.035Z,101200.34
2023-01-30T02:48:00.318Z,101206.59
2023-01-30T02:48:25.489Z,101205.63
2023-01-30T02:48:52.279Z,101200.38
2023-01-30T02:49:20.419Z,101204.75
2023-01-30T02:49:48.192Z,101208.25
2023-01-30T02:50:18.387Z,101186.50
2023-01-30T02:50:44.713Z,101193.44
2023-01-30T02:51:09.908Z,101206.66
2023-01-30T02:51:35.192Z,101204.34
2023-01-30T02:52:00.696Z,101193.75
2023-01-30T02:52:24.477Z,101189.25
2023-01-30T02:52:48.718Z,101197.16
2023-01-30T02:53:12.570Z,101190.94
2023-01-30T02:53:36.673Z,101189.09
2023-01-30T02:54:00.431Z,101198.81
2023-01-30T02:54:23.161Z,101189.16
2023-01-30T02:54:44.844Z,101187.44
2023-01-30T02:55:08.925Z,101182.09
2023-01-30T02:55:31.445Z,101182.16
2023-01-30T02:55:54.073Z,101180.41
2023-01-30T02:56:15.999Z,101177.81
2023-01-30T02:56:46.880Z,101182.25
2023-01-30T02:57:18.794Z,101188.59
2023-01-30T02:57:44.162Z,101193.78
2023-01-30T02:58:09.454Z,101190.28
2023-01-30T02:58:36.525Z,101192.94
2023-01-30T02:59:08.287Z,101186.91
2023-01-30T02:59:35.807Z,101183.38
2023-01-30T03:00:02.383Z,101179.78
2023-01-30T03:00:35.226Z,101181.50
2023-01-30T03:01:40.135Z,101180.56
2023-01-30T03:02:29.895Z,101181.38
2023-01-30T03:03:09.071Z,101175.94
2023-01-30T03:03:51.737Z,101170.63
2023-01-30T03:04:31.917Z,101168.84
2023-01-30T03:05:19.708Z,101168.97
2023-01-30T03:06:04.983Z,101163.56
2023-01-30T03:06:37.689Z,101169.00
2023-01-30T03:07:13.362Z,101163.91
2023-01-30T03:07:44.430Z,101169.06
2023-01-30T03:08:17.963Z,101158.50
2023-01-30T03:08:50.414Z,101166.31
2023-01-30T03:09:18.555Z,101166.41
2023-01-30T03:09:47.299Z,101161.13
2023-01-30T03:10:19.732Z,101152.38
2023-01-30T03:10:55.860Z,101158.44
2023-01-30T03:11:17.971Z,101146.88
2023-01-30T03:11:48.479Z,101152.19
2023-01-30T03:12:18.799Z,101149.59
2023-01-30T03:12:48.883Z,101148.66
2023-01-30T03:13:19.550Z,101143.34
2023-01-30T03:13:50.474Z,101132.72
2023-01-30T03:14:20.033Z,101151.09
2023-01-30T03:14:47.656Z,101159.84
2023-01-30T03:15:17.202Z,101155.50
2023-01-30T03:15:43.016Z,101153.78
2023-01-30T03:16:12.472Z,101159.22
2023-01-30T03:16:41.244Z,101146.31
2023-01-30T03:17:06.445Z,101152.44
2023-01-30T03:17:29.415Z,101156.78
2023-01-30T03:17:52.192Z,101154.13
2023-01-30T03:18:18.956Z,101157.50
2023-01-30T03:18:41.741Z,101160.97
2023-01-30T03:19:05.957Z,101160.88
2023-01-30T03:19:29.805Z,101152.06
2023-01-30T03:19:55.240Z,101161.72
2023-01-30T03:20:20.366Z,101152.13
2023-01-30T03:20:43.149Z,101144.16
2023-01-30T03:21:06.306Z,101152.88
2023-01-30T03:21:29.402Z,101157.50
2023-01-30T03:21:52.703Z,101138.97
2023-01-30T03:22:15.986Z,101153.91
2023-01-30T03:22:39.156Z,101166.25
2023-01-30T03:23:02.956Z,101141.63
2023-01-30T03:23:26.976Z,101147.72
2023-01-30T03:23:49.025Z,101148.72
2023-01-30T03:24:11.200Z,101153.06
2023-01-30T03:24:33.838Z,101157.41
2023-01-30T03:24:55.630Z,101154.72
2023-01-30T03:25:20.877Z,101160.81
2023-01-30T03:25:47.338Z,101156.31
2023-01-30T03:26:17.253Z,101153.69
2023-01-30T03:26:46.743Z,101161.59
2023-01-30T03:27:12.709Z,101148.34
2023-01-30T03:27:37.218Z,101164.19
2023-01-30T03:28:04.148Z,101151.97
2023-01-30T03:28:28.169Z,101155.69
2023-01-30T03:28:51.767Z,101157.41
2023-01-30T03:29:14.972Z,101158.28
2023-01-30T03:29:37.529Z,101159.13
2023-01-30T03:30:02.298Z,101148.50
2023-01-30T03:30:26.461Z,101160.78
2023-01-30T03:30:56.399Z,101149.28
2023-01-30T03:31:18.644Z,101156.25
2023-01-30T03:31:42.948Z,101150.03
2023-01-30T03:32:05.363Z,101155.25
2023-01-30T03:32:27.276Z,101147.28
2023-01-30T03:32:49.854Z,101146.41
2023-01-30T03:33:13.600Z,101143.84
2023-01-30T03:33:38.213Z,101150.97
2023-01-30T03:34:02.512Z,101145.75
2023-01-30T03:34:26.159Z,101146.56
2023-01-30T03:34:49.139Z,101140.34
2023-01-30T03:35:10.828Z,101150.84
2023-01-30T03:35:33.481Z,101145.50
2023-01-30T03:35:55.647Z,101143.94
2023-01-30T03:36:19.961Z,101140.34
2023-01-30T03:36:43.489Z,101143.91
2023-01-30T03:37:06.162Z,101145.78
2023-01-30T03:37:30.936Z,101142.16
2023-01-30T03:37:53.883Z,101138.78
2023-01-30T03:38:15.622Z,101143.16
2023-01-30T03:38:37.415Z,101141.34
2023-01-30T03:38:59.510Z,101143.03
2023-01-30T03:39:24.451Z,101142.09
2023-01-30T03:39:46.841Z,101148.16
2023-01-30T03:40:12.275Z,101143.72
2023-01-30T03:40:37.744Z,101142.78
2023-01-30T03:41:00.049Z,101138.34
2023-01-30T03:41:24.517Z,101143.66
2023-01-30T03:41:46.701Z,101140.06
2023-01-30T03:42:13.599Z,101143.59
2023-01-30T03:42:36.882Z,101146.31
2023-01-30T03:42:58.934Z,101139.38
2023-01-30T03:43:21.684Z,101143.75
2023-01-30T03:43:45.060Z,101148.22
2023-01-30T03:44:07.263Z,101137.69
2023-01-30T03:44:28.906Z,101137.72
2023-01-30T03:44:51.159Z,101127.38
2023-01-30T03:45:16.632Z,101129.06
2023-01-30T03:45:39.500Z,101122.91
2023-01-30T03:46:02.285Z,101138.75
2023-01-30T03:46:24.441Z,101132.47
2023-01-30T03:46:49.373Z,101135.94
2023-01-30T03:47:11.040Z,101132.34
2023-01-30T03:47:32.924Z,101128.78
2023-01-30T03:47:55.290Z,101139.31
2023-01-30T03:48:16.943Z,101135.72
2023-01-30T03:48:39.619Z,101137.56
2023-01-30T03:49:01.914Z,101131.59
2023-01-30T03:49:23.657Z,101131.66
2023-01-30T03:49:46.253Z,101124.56
2023-01-30T03:50:09.424Z,101122.84
2023-01-30T03:50:31.544Z,101130.72
2023-01-30T03:50:54.246Z,101127.19
2023-01-30T03:51:16.020Z,101115.69
2023-01-30T03:51:38.013Z,101120.13
2023-01-30T03:51:59.891Z,101120.16
2023-01-30T03:52:22.550Z,101120.97
2023-01-30T03:52:44.210Z,101117.50
2023-01-30T03:53:09.472Z,101116.56
2023-01-30T03:53:31.204Z,101115.72
2023-01-30T03:53:54.616Z,101113.00
2023-01-30T03:54:17.242Z,101116.56
2023-01-30T03:54:38.865Z,101116.88
2023-01-30T03:55:00.503Z,101101.78
2023-01-30T03:55:22.171Z,101114.06
2023-01-30T03:55:45.609Z,101107.00
2023-01-30T03:56:07.476Z,101119.28
2023-01-30T03:56:31.497Z,101109.69
2023-01-30T03:56:54.278Z,101107.88
2023-01-30T03:57:16.089Z,101100.97
2023-01-30T03:57:38.225Z,101110.66
2023-01-30T03:57:59.912Z,101109.75
2023-01-30T03:58:25.755Z,101101.72
2023-01-30T03:58:47.526Z,101105.25
2023-01-30T03:59:23.121Z,101101.78
2023-01-30T03:59:55.600Z,101098.25
2023-01-30T04:00:18.183Z,101106.22
2023-01-30T04:00:43.411Z,101104.41
2023-01-30T04:01:05.352Z,101100.91
2023-01-30T04:01:28.061Z,101104.31
2023-01-30T04:01:51.059Z,101096.38
2023-01-30T04:02:13.856Z,101103.53
2023-01-30T04:02:38.537Z,101104.53
2023-01-30T04:03:01.086Z,101104.50
2023-01-30T04:03:22.743Z,101098.31
2023-01-30T04:03:46.139Z,101097.44
2023-01-30T04:04:08.625Z,101098.19
2023-01-30T04:04:31.264Z,101102.59
2023-01-30T04:04:53.500Z,101106.94
2023-01-30T04:05:15.628Z,101090.22
2023-01-30T04:05:43.439Z,101094.75
2023-01-30T04:06:06.249Z,101101.84
2023-01-30T04:06:27.903Z,101086.91
2023-01-30T04:06:49.693Z,101096.63
2023-01-30T04:07:11.320Z,101095.75
2023-01-30T04:07:35.680Z,101100.97
2023-01-30T04:07:58.075Z,101103.53
2023-01-30T04:08:19.750Z,101099.06
2023-01-30T04:08:42.596Z,101093.84
2023-01-30T04:09:10.129Z,101097.25
2023-01-30T04:09:36.657Z,101083.16
2023-01-30T04:09:59.346Z,101102.47
2023-01-30T04:10:21.388Z,101087.56
2023-01-30T04:10:42.967Z,101099.84
2023-01-30T04:11:05.078Z,101083.94
2023-01-30T04:11:27.840Z,101083.03
2023-01-30T04:11:49.560Z,101084.94
2023-01-30T04:12:12.882Z,101086.69
2023-01-30T04:12:42.974Z,101090.09
2023-01-30T04:13:06.441Z,101087.63
2023-01-30T04:13:28.405Z,101079.66
2023-01-30T04:13:50.063Z,101084.22
2023-01-30T04:14:11.890Z,101081.69
2023-01-30T04:14:46.799Z,101092.09
2023-01-30T04:15:17.672Z,101080.66
2023-01-30T04:16:18.352Z,101097.25
2023-01-30T04:17:01.363Z,101086.69
2023-01-30T04:17:35.185Z,101086.94
2023-01-30T04:18:16.369Z,101077.31
2023-01-30T04:18:44.881Z,101078.19
2023-01-30T04:19:13.150Z,101079.00
2023-01-30T04:19:36.655Z,101077.38
2023-01-30T04:19:59.083Z,101067.69
2023-01-30T04:20:21.286Z,101076.41
2023-01-30T04:20:47.240Z,101076.25
2023-01-30T04:21:11.815Z,101074.41
2023-01-30T04:21:34.574Z,101074.38
2023-01-30T04:21:56.291Z,101058.69
2023-01-30T04:22:18.046Z,101070.97
2023-01-30T04:22:40.727Z,101070.09
2023-01-30T04:23:02.650Z,101061.28
2023-01-30T04:23:25.278Z,101061.16
2023-01-30T04:23:47.081Z,101059.38
2023-01-30T04:24:10.356Z,101055.84
2023-01-30T04:24:32.045Z,101062.84
2023-01-30T04:24:53.671Z,101058.44
2023-01-30T04:25:16.302Z,101054.22
2023-01-30T04:25:39.442Z,101052.41
2023-01-30T04:26:03.720Z,101059.63
2023-01-30T04:26:25.464Z,101063.09
2023-01-30T04:26:47.264Z,101056.00
2023-01-30T04:27:10.220Z,101062.97
2023-01-30T04:27:36.911Z,101061.22
2023-01-30T04:28:06.900Z,101062.97
2023-01-30T04:28:32.779Z,101067.44
2023-01-30T04:28:54.492Z,101062.97
2023-01-30T04:29:16.072Z,101062.84
2023-01-30T04:29:39.346Z,101066.31
2023-01-30T04:30:06.612Z,101066.19
2023-01-30T04:30:28.278Z,101068.84
2023-01-30T04:31:04.402Z,101068.00
2023-01-30T04:31:38.807Z,101068.78
2023-01-30T04:32:22.618Z,101069.66
2023-01-30T04:32:44.249Z,101073.13
2023-01-30T04:33:06.281Z,101065.16
2023-01-30T04:33:30.003Z,101077.44
2023-01-30T04:33:51.798Z,101080.00
2023-01-30T04:34:13.768Z,101070.25
2023-01-30T04:34:35.410Z,101079.09
2023-01-30T04:34:58.073Z,101076.47
2023-01-30T04:35:20.020Z,101070.31
2023-01-30T04:35:50.878Z,101078.31
2023-01-30T04:36:13.929Z,101071.28
2023-01-30T04:36:36.901Z,101080.09
2023-01-30T04:36:58.958Z,101083.56
2023-01-30T04:37:21.394Z,101075.69
2023-01-30T04:37:45.617Z,101080.09
2023-01-30T04:38:11.491Z,101098.56
2023-01-30T04:38:34.702Z,101082.94
2023-01-30T04:38:58.250Z,101081.22
2023-01-30T04:39:22.090Z,101089.13
2023-01-30T04:39:43.907Z,101089.94
2023-01-30T04:40:06.727Z,101088.09
2023-01-30T04:40:29.613Z,101089.84
2023-01-30T04:40:54.152Z,101086.38
2023-01-30T04:41:15.826Z,101080.22
2023-01-30T04:41:38.558Z,101094.25
2023-01-30T04:42:01.177Z,101090.00
2023-01-30T04:42:25.336Z,101088.34
2023-01-30T04:43:09.924Z,101085.78
2023-01-30T04:43:55.461Z,101085.94
2023-01-30T04:44:27.528Z,101090.25
2023-01-30T04:45:16.615Z,101088.25
2023-01-30T04:45:42.298Z,101090.09
2023-01-30T04:46:04.874Z,101091.03
2023-01-30T04:46:26.648Z,101086.69
2023-01-30T04:46:49.250Z,101089.38
2023-01-30T04:47:11.449Z,101075.34
2023-01-30T04:47:34.615Z,101093.78
2023-01-30T04:47:56.301Z,101094.78
2023-01-30T04:48:19.774Z,101094.75
2023-01-30T04:48:41.567Z,101086.81
2023-01-30T04:49:04.068Z,101085.97
2023-01-30T04:49:26.919Z,101086.09
2023-01-30T04:49:49.113Z,101076.31
2023-01-30T04:50:11.380Z,101086.13
2023-01-30T04:50:33.951Z,101080.06
2023-01-30T04:50:57.516Z,101096.63
2023-01-30T04:51:19.326Z,101079.06
2023-01-30T04:51:41.846Z,101086.81
2023-01-30T04:52:05.396Z,101092.03
2023-01-30T04:52:26.989Z,101091.16